サル島 の空港の天気 - METARとTAF

アミルカル・カブラル国際空港 ( GVAC / SID ) - カーボベルデ サル島
飛行場実況気象(Metar)
観測時間08/25 18:00 CVT (08/25 19:00 UTC)
風向・風速西 5m/s
視程10km以上
天気現象
少しの雲 雲底高度 370m
全天の4割程度の雲 雲底高度 430m
気温29℃
湿度70%
気圧1011hPa
METARGVAC 251900Z 26009KT 9999 FEW012TCU SCT014 29/23 Q1011 NOSIG
過去の天気等 Google飛行場航空写真 Wunderground天気予報

過去48時間のMETAR

飛行場予報(TAF)
発表時間: 8/25 16:00 CVT (8/25 17:00 UTC)
予報対象時間: 25日17時 CVT ~ 26日23時 CVT
風向・風速西 3m/s
視程10km以上
少しの雲 雲底高度 400m
全天の4割程度の雲 雲底高度 460m
26日9時 CVT ~ 26日14時 CVT に一時的に
風向・風速東北東 5m/s
TAF GVAC 251700Z 2518/2624 27006KT 9999 FEW013 SCT015
TEMPO 2610/2615 06010KT